Waskatenau, Canada
Current Conditions -  °F | °C
As of 9:22 AM on Thursday 29 Jan 2015 (Local Time) from CYED Reporting Station
Overcast Overcast  
Wind Chill: 14°   Ceiling: 400
Heat Index: 23°   Visibility: 3mi
Dew Point: 19°   Wind: 8mph
Humidity: 86%   Direction: 180°S
Pressure: 30.26"   Gusts: NA
Location:  54.09°N, 112.79°W
Report Text: CYED 291622Z AUTO 18007KT 3SM OVC004 M05/M07 A3026 RMK ICG PAST HR
Loading
Personal Weather Stations






























Interactive Weather Map New forecast layout! Learn more

10-Day Weather Forecast

Advertisements
Track Severe Weather on mobile